Time;durP1;ratioP1;P1;durP2;ratioP2;P2;SDS_P1;SDS_P2;PMS_P1;PMS_P2;Temp;Humidity;BMP_temperature;BMP_pressure;BME280_temperature;BME280_humidity;BME280_pressure;Samples;Min_cycle;Max_cycle;Signal;HPM_P1;HPM_P2
2023/01/16 00:01:01;;;;;;;21.05;9.77;;;-2.50;99.50;;;;;;5052791;28;20031;-76
2023/01/16 00:03:26;;;;;;;20.80;13.20;;;-2.50;99.50;;;;;;5054273;28;20096;-76
2023/01/16 00:05:52;;;;;;;25.92;13.25;;;-2.40;99.60;;;;;;5053872;28;20104;-77
2023/01/16 00:08:18;;;;;;;23.80;12.23;;;-2.50;99.40;;;;;;5054094;28;20481;-78
2023/01/16 00:10:44;;;;;;;27.90;11.40;;;-2.50;99.50;;;;;;5054022;28;20104;-78
2023/01/16 00:13:14;;;;;;;24.60;9.20;;;-2.50;99.30;;;;;;5054036;28;20031;-77
2023/01/16 00:15:47;;;;;;;24.55;11.93;;;-2.40;99.30;;;;;;5053953;28;20063;-78
2023/01/16 00:18:13;;;;;;;23.63;11.98;;;-2.50;99.20;;;;;;5042895;28;20013;-77
2023/01/16 00:20:39;;;;;;;30.30;10.80;;;-2.50;99.40;;;;;;5054048;28;20142;-79
2023/01/16 00:23:05;;;;;;;25.88;13.30;;;-2.50;99.50;;;;;;5053855;28;20048;-77
2023/01/16 00:25:31;;;;;;;24.95;13.20;;;-2.50;99.40;;;;;;5054351;28;20025;-79
2023/01/16 00:27:57;;;;;;;13.68;8.88;;;-2.50;99.50;;;;;;5054229;28;20021;-79
2023/01/16 00:30:24;;;;;;;17.63;10.43;;;-2.50;99.40;;;;;;5047876;28;20074;-74
2023/01/16 00:32:50;;;;;;;29.45;14.27;;;-2.50;99.50;;;;;;5053615;28;20032;-77
2023/01/16 00:35:16;;;;;;;25.25;13.57;;;-2.50;99.40;;;;;;5054769;28;20033;-79
2023/01/16 00:37:42;;;;;;;28.40;13.63;;;-2.50;99.50;;;;;;5053266;28;20029;-77
2023/01/16 00:40:08;;;;;;;20.58;11.85;;;-2.50;99.50;;;;;;5053764;28;20080;-76
2023/01/16 00:42:34;;;;;;;22.27;12.18;;;-2.50;99.50;;;;;;5036230;28;20045;-77
2023/01/16 00:45:00;;;;;;;26.20;13.70;;;-2.50;99.60;;;;;;5053649;28;20028;-77
2023/01/16 00:47:26;;;;;;;19.05;10.55;;;-2.50;99.70;;;;;;5053128;28;20029;-78
2023/01/16 00:49:52;;;;;;;24.00;12.20;;;-2.50;99.70;;;;;;5052780;28;20468;-77
2023/01/16 00:52:17;;;;;;;29.80;14.40;;;-2.50;99.60;;;;;;5052903;28;20510;-76
2023/01/16 00:54:43;;;;;;;28.45;13.07;;;-2.50;99.60;;;;;;5035451;28;20021;-76
2023/01/16 00:57:09;;;;;;;29.95;14.75;;;-2.50;99.60;;;;;;5052867;28;20127;-76
2023/01/16 00:59:35;;;;;;;24.88;13.40;;;-2.50;99.80;;;;;;5045299;28;20060;-77
2023/01/16 01:02:01;;;;;;;14.77;9.65;;;-2.50;99.80;;;;;;5051502;28;20043;-77
2023/01/16 01:04:28;;;;;;;21.10;12.68;;;-2.40;99.70;;;;;;5053456;28;20013;-78
2023/01/16 01:06:54;;;;;;;28.42;13.75;;;-2.40;99.80;;;;;;5053222;28;20037;-77
2023/01/16 01:09:20;;;;;;;27.73;12.52;;;-2.40;99.80;;;;;;5041829;28;20021;-76
2023/01/16 01:11:46;;;;;;;24.27;12.13;;;-2.30;99.80;;;;;;5053105;28;20025;-77
2023/01/16 01:14:12;;;;;;;25.10;12.15;;;-2.40;99.60;;;;;;5053163;28;20025;-78
2023/01/16 01:16:37;;;;;;;27.45;11.23;;;-2.40;99.50;;;;;;5053293;28;20033;-78
2023/01/16 01:19:03;;;;;;;26.08;14.32;;;-2.40;99.70;;;;;;5052818;28;20021;-76
2023/01/16 01:21:29;;;;;;;24.83;12.52;;;-2.40;99.80;;;;;;5051443;28;20187;-76
2023/01/16 01:23:58;;;;;;;33.63;13.65;;;-2.40;99.80;;;;;;5053012;28;20025;-77
2023/01/16 01:26:24;;;;;;;27.20;13.20;;;-2.40;99.80;;;;;;5042080;28;20025;-76
2023/01/16 01:28:49;;;;;;;29.17;12.55;;;-2.40;99.90;;;;;;5052658;28;20489;-76
2023/01/16 01:31:15;;;;;;;22.60;12.48;;;-2.30;99.90;;;;;;5038248;28;20036;-76
2023/01/16 01:33:42;;;;;;;17.63;10.43;;;-2.40;99.90;;;;;;5052812;28;20021;-77
2023/01/16 01:36:08;;;;;;;29.73;10.95;;;-2.30;99.90;;;;;;5034717;28;20487;-76
2023/01/16 01:38:35;;;;;;;21.05;12.77;;;-2.30;99.90;;;;;;5034699;28;20036;-76
2023/01/16 01:41:01;;;;;;;27.70;13.65;;;-2.40;99.90;;;;;;5055346;28;20033;-77
2023/01/16 01:43:50;;;;;;;20.73;11.95;;;-2.30;99.90;;;;;;5055826;28;20043;-77
2023/01/16 01:46:33;;;;;;;20.38;9.45;;;-2.30;99.90;;;;;;5063117;28;20087;-76
2023/01/16 01:49:18;;;;;;;23.55;11.45;;;-2.30;99.70;;;;;;5063752;28;20017;-80
2023/01/16 01:51:44;;;;;;;27.25;12.80;;;-2.40;99.80;;;;;;5062257;28;20384;-77
2023/01/16 01:54:21;;;;;;;26.98;13.38;;;-2.40;99.90;;;;;;5061416;28;20025;-75
2023/01/16 01:56:52;;;;;;;18.92;9.68;;;-2.40;99.90;;;;;;5056764;28;20025;-78
2023/01/16 01:59:24;;;;;;;13.98;8.55;;;-2.40;99.90;;;;;;5054968;28;20395;-78
2023/01/16 02:01:51;;;;;;;21.77;10.95;;;-2.40;99.90;;;;;;5054517;28;20025;-78
2023/01/16 02:04:20;;;;;;;33.40;13.13;;;-2.40;99.90;;;;;;5052506;28;20025;-76
2023/01/16 02:06:55;;;;;;;19.50;10.68;;;-2.50;99.90;;;;;;5052261;28;20025;-77
2023/01/16 02:09:22;;;;;;;25.52;12.93;;;-2.50;99.90;;;;;;5052317;28;20032;-78
2023/01/16 02:11:54;;;;;;;22.83;13.35;;;-2.50;99.90;;;;;;5051142;28;20052;-78
2023/01/16 02:14:22;;;;;;;26.48;13.52;;;-2.50;99.90;;;;;;5052469;28;20106;-77
2023/01/16 02:19:45;;;;;;;26.13;12.05;;;-2.50;99.90;;;;;;5052106;28;20043;-78
2023/01/16 02:22:32;;;;;;;30.30;13.32;;;-2.50;99.90;;;;;;5051731;28;20388;-75
2023/01/16 02:25:36;;;;;;;46.40;13.02;;;-2.50;99.90;;;;;;5052076;28;20025;-76
2023/01/16 02:28:30;;;;;;;19.08;12.25;;;-2.50;99.90;;;;;;5040029;28;20092;-77
2023/01/16 02:31:27;;;;;;;27.20;13.35;;;-2.50;99.90;;;;;;5034016;28;20065;-77
2023/01/16 02:34:04;;;;;;;26.85;11.25;;;-2.50;99.90;;;;;;5050360;28;20033;-76
2023/01/16 02:37:04;;;;;;;18.95;9.10;;;-2.50;99.90;;;;;;5051736;28;20199;-76
2023/01/16 02:39:39;;;;;;;19.55;10.25;;;-2.40;99.90;;;;;;5046689;28;20080;-77
2023/01/16 02:42:26;;;;;;;31.77;12.75;;;-2.50;99.90;;;;;;5053627;28;20120;-75
2023/01/16 02:45:12;;;;;;;22.77;10.55;;;-2.40;99.90;;;;;;5055510;28;20025;-76
2023/01/16 02:47:46;;;;;;;22.55;10.73;;;-2.50;99.90;;;;;;5056082;28;20048;-77
2023/01/16 02:50:26;;;;;;;31.45;12.07;;;-2.50;99.90;;;;;;5056400;28;20095;-77
2023/01/16 02:53:15;;;;;;;19.27;9.05;;;-2.50;99.90;;;;;;5055801;28;20495;-78
2023/01/16 02:55:52;;;;;;;11.88;8.30;;;-2.40;99.90;;;;;;5044340;28;20155;-78
2023/01/16 02:58:20;;;;;;;22.67;10.32;;;-2.50;99.90;;;;;;5048610;28;20053;-78
2023/01/16 03:00:56;;;;;;;33.42;15.63;;;-2.50;99.90;;;;;;5054660;28;20068;-76
2023/01/16 03:03:50;;;;;;;22.38;10.25;;;-2.60;99.90;;;;;;5055480;28;20017;-78
2023/01/16 03:06:38;;;;;;;15.50;9.35;;;-2.60;99.90;;;;;;5055299;28;20079;-77
2023/01/16 03:09:18;;;;;;;29.98;11.50;;;-2.60;99.90;;;;;;5024258;28;20467;-75
2023/01/16 03:12:00;;;;;;;29.65;11.70;;;-2.60;99.90;;;;;;5055271;28;20427;-78
2023/01/16 03:15:00;;;;;;;29.80;13.27;;;-2.60;99.90;;;;;;5055344;28;20027;-76
2023/01/16 03:17:37;;;;;;;28.85;12.05;;;-2.60;99.90;;;;;;5053876;28;20056;-76
2023/01/16 03:20:35;;;;;;;26.15;13.15;;;-2.60;99.90;;;;;;5055259;28;20025;-78
2023/01/16 03:23:12;;;;;;;26.63;13.30;;;-2.60;99.90;;;;;;5031466;28;20380;-79
2023/01/16 03:25:43;;;;;;;;;;;-2.60;99.90;;;;;;5055622;28;20041;-77
2023/01/16 03:28:27;;;;;;;26.08;10.25;;;-2.60;99.90;;;;;;5055053;28;19905;-78
2023/01/16 03:31:14;;;;;;;12.45;6.15;;;-2.60;99.90;;;;;;5040896;28;20033;-78
2023/01/16 03:34:08;;;;;;;26.67;10.35;;;-2.60;99.90;;;;;;5054235;28;20021;-77
2023/01/16 03:36:42;;;;;;;31.48;11.77;;;-2.70;99.90;;;;;;5053625;28;20083;-76
2023/01/16 03:39:10;;;;;;;25.70;8.30;;;-2.60;99.90;;;;;;5055043;28;20036;-77
2023/01/16 03:41:40;;;;;;;26.15;9.32;;;-2.60;99.90;;;;;;5054791;28;20048;-77
2023/01/16 03:44:15;;;;;;;17.40;9.15;;;-2.60;99.90;;;;;;5036788;28;20108;-77
2023/01/16 03:46:47;;;;;;;34.03;15.77;;;-2.60;99.90;;;;;;5054953;28;20037;-78
2023/01/16 03:49:27;;;;;;;34.45;13.82;;;-2.60;99.90;;;;;;5036938;28;20449;-76
2023/01/16 03:51:58;;;;;;;32.40;11.43;;;-2.60;99.90;;;;;;5053482;28;20107;-78
2023/01/16 03:54:36;;;;;;;12.30;9.02;;;-2.50;99.90;;;;;;5054576;28;20388;-77
2023/01/16 03:57:18;;;;;;;31.85;12.25;;;-2.50;99.90;;;;;;5053621;28;20060;-78
2023/01/16 03:59:46;;;;;;;34.65;12.20;;;-2.60;99.90;;;;;;5054590;28;20013;-78
2023/01/16 04:02:36;;;;;;;32.60;12.38;;;-2.60;99.90;;;;;;5040482;28;20560;-76
2023/01/16 04:05:16;;;;;;;27.23;7.43;;;-2.60;99.90;;;;;;5054393;28;20024;-76
2023/01/16 04:07:48;;;;;;;32.58;11.40;;;-2.70;99.90;;;;;;5053454;28;20031;-77
2023/01/16 04:10:22;;;;;;;23.75;11.35;;;-2.80;99.90;;;;;;5054396;28;20021;-76
2023/01/16 04:13:01;;;;;;;28.85;11.30;;;-2.70;99.90;;;;;;5036583;28;20039;-76
2023/01/16 04:15:30;;;;;;;17.35;7.60;;;-2.60;99.90;;;;;;5054236;28;20276;-77
2023/01/16 04:17:57;;;;;;;21.90;11.38;;;-2.60;99.90;;;;;;5054228;28;20534;-77
2023/01/16 04:20:27;;;;;;;23.05;9.05;;;-2.60;99.90;;;;;;5054061;28;20483;-78
2023/01/16 04:22:53;;;;;;;26.10;10.88;;;-2.70;99.90;;;;;;5054191;28;20032;-77
2023/01/16 04:25:19;;;;;;;29.58;10.82;;;-2.70;99.90;;;;;;5034837;28;20029;-77
2023/01/16 04:27:45;;;;;;;32.50;13.60;;;-2.70;99.90;;;;;;5053880;28;20407;-77
2023/01/16 04:30:12;;;;;;;23.90;7.95;;;-2.70;99.90;;;;;;5045338;28;20033;-78
2023/01/16 04:32:38;;;;;;;22.90;9.30;;;-2.80;99.90;;;;;;5030386;28;20029;-79
2023/01/16 04:35:04;;;;;;;28.83;11.02;;;-2.70;99.90;;;;;;5053718;28;20403;-77
2023/01/16 04:37:31;;;;;;;26.27;8.03;;;-2.70;99.90;;;;;;5053867;28;20025;-76
2023/01/16 04:39:58;;;;;;;29.10;14.05;;;-2.70;99.90;;;;;;5052701;28;20293;-78
2023/01/16 04:42:24;;;;;;;27.45;11.85;;;-2.70;99.90;;;;;;5052682;28;20037;-78
2023/01/16 04:44:50;;;;;;;29.27;10.85;;;-2.80;99.90;;;;;;5053414;28;20013;-75
2023/01/16 04:47:16;;;;;;;32.65;10.90;;;-2.80;99.90;;;;;;5053639;28;20033;-78
2023/01/16 04:49:41;;;;;;;37.75;10.85;;;-2.80;99.90;;;;;;5053425;28;20029;-78
2023/01/16 04:52:09;;;;;;;28.58;9.15;;;-2.70;99.90;;;;;;5053489;28;20016;-78
2023/01/16 04:54:34;;;;;;;25.58;12.25;;;-2.80;99.90;;;;;;5053460;28;20033;-76
2023/01/16 04:57:01;;;;;;;25.38;9.65;;;-2.70;99.90;;;;;;5053003;28;20098;-78
2023/01/16 04:59:27;;;;;;;26.20;12.23;;;-2.70;99.90;;;;;;5052211;28;20032;-78
2023/01/16 05:01:53;;;;;;;18.60;8.95;;;-2.70;99.90;;;;;;5053026;28;20032;-79
2023/01/16 05:04:19;;;;;;;17.00;8.55;;;-2.70;99.90;;;;;;5034609;28;20415;-77
2023/01/16 05:06:45;;;;;;;30.10;12.40;;;-2.80;99.90;;;;;;5053036;28;20029;-78
2023/01/16 05:09:11;;;;;;;21.88;9.30;;;-2.80;99.90;;;;;;5053074;28;20142;-78
2023/01/16 05:11:37;;;;;;;28.80;13.32;;;-2.80;99.90;;;;;;5035208;28;20071;-78
2023/01/16 05:14:07;;;;;;;23.60;10.95;;;-2.80;99.90;;;;;;5052980;28;20092;-78
2023/01/16 05:16:34;;;;;;;18.35;10.10;;;-2.80;99.90;;;;;;5033544;28;20060;-78
2023/01/16 05:19:00;;;;;;;26.13;12.63;;;-2.80;99.90;;;;;;5053107;28;20016;-79
2023/01/16 05:21:26;;;;;;;16.40;7.75;;;-2.80;99.90;;;;;;5035106;28;20041;-77
2023/01/16 05:23:52;;;;;;;20.05;8.57;;;-2.80;99.90;;;;;;5052521;28;20024;-76
2023/01/16 05:26:18;;;;;;;26.67;10.77;;;-2.90;99.90;;;;;;5015011;28;20025;-78
2023/01/16 05:28:44;;;;;;;36.20;11.57;;;-2.90;99.90;;;;;;5047214;28;20032;-78
2023/01/16 05:31:10;;;;;;;29.15;11.65;;;-2.80;99.90;;;;;;5044559;28;20713;-78
2023/01/16 05:33:36;;;;;;;26.85;11.20;;;-2.80;99.90;;;;;;5051082;28;20021;-78
2023/01/16 05:36:02;;;;;;;33.85;13.38;;;-2.80;99.90;;;;;;5052217;28;20391;-77
2023/01/16 05:38:28;;;;;;;47.15;12.13;;;-2.80;99.90;;;;;;5052275;28;20036;-78
2023/01/16 05:40:54;;;;;;;26.50;11.45;;;-2.80;99.90;;;;;;5051905;28;20033;-78
2023/01/16 05:43:20;;;;;;;32.33;12.32;;;-2.80;99.90;;;;;;5052205;28;20476;-78
2023/01/16 05:45:45;;;;;;;25.65;9.27;;;-2.80;99.90;;;;;;5052393;28;20036;-78
2023/01/16 05:48:11;;;;;;;16.75;8.20;;;-2.80;99.90;;;;;;5052065;28;20025;-78
2023/01/16 05:50:37;;;;;;;39.13;12.93;;;-2.80;99.90;;;;;;5050818;28;20430;-78
2023/01/16 05:53:03;;;;;;;27.60;13.30;;;-2.80;99.90;;;;;;5050121;28;20487;-78
2023/01/16 05:55:29;;;;;;;33.70;12.18;;;-2.80;99.90;;;;;;5052246;28;20055;-79
2023/01/16 05:57:55;;;;;;;17.15;9.40;;;-2.80;99.90;;;;;;5052154;28;20041;-78
2023/01/16 06:00:21;;;;;;;35.03;12.60;;;-2.90;99.90;;;;;;5052072;28;20033;-78
2023/01/16 06:02:48;;;;;;;21.58;10.32;;;-2.90;99.90;;;;;;5052820;28;20111;-79
2023/01/16 06:05:15;;;;;;;33.33;11.80;;;-3.00;99.90;;;;;;5051823;28;20017;-77
2023/01/16 06:07:41;;;;;;;40.75;11.45;;;-3.00;99.90;;;;;;5050789;28;20124;-79
2023/01/16 06:10:11;;;;;;;27.70;9.55;;;-3.00;99.90;;;;;;5051879;28;20108;-78
2023/01/16 06:12:37;;;;;;;25.42;12.07;;;-3.00;99.90;;;;;;5051729;28;20119;-80
2023/01/16 06:15:04;;;;;;;24.35;11.43;;;-3.00;99.90;;;;;;5051989;28;20040;-80
2023/01/16 06:17:30;;;;;;;27.95;10.95;;;-3.00;99.90;;;;;;5033591;28;20107;-79
2023/01/16 06:19:56;;;;;;;19.67;9.80;;;-3.00;99.90;;;;;;5051960;28;20104;-78
2023/01/16 06:22:23;;;;;;;26.98;10.02;;;-2.90;99.90;;;;;;5051261;28;20033;-79
2023/01/16 06:24:48;;;;;;;26.00;11.25;;;-3.00;99.90;;;;;;5050557;28;20029;-79
2023/01/16 06:27:14;;;;;;;18.63;7.85;;;-3.00;99.90;;;;;;5033703;28;20025;-78
2023/01/16 06:29:41;;;;;;;31.25;10.77;;;-3.00;99.90;;;;;;5051815;28;20021;-78
2023/01/16 06:32:07;;;;;;;25.63;11.50;;;-3.10;99.90;;;;;;5051321;28;20052;-78
2023/01/16 06:34:33;;;;;;;32.47;10.45;;;-3.10;99.90;;;;;;5052444;28;20071;-79
2023/01/16 06:36:58;;;;;;;22.27;9.32;;;-3.00;99.90;;;;;;5033526;28;20032;-78
2023/01/16 06:39:24;;;;;;;29.92;9.50;;;-3.00;99.90;;;;;;5051553;28;20025;-80
2023/01/16 06:41:50;;;;;;;25.25;10.48;;;-3.00;99.90;;;;;;5049407;28;20047;-78
2023/01/16 06:44:16;;;;;;;38.03;11.20;;;-3.10;99.90;;;;;;5051397;28;20024;-78
2023/01/16 06:46:42;;;;;;;41.78;15.60;;;-3.10;99.90;;;;;;5051480;28;20119;-79
2023/01/16 06:49:09;;;;;;;30.17;12.77;;;-3.10;99.90;;;;;;5051618;28;20040;-80
2023/01/16 06:51:35;;;;;;;28.77;11.90;;;-3.10;99.90;;;;;;5031903;28;20029;-80
2023/01/16 06:54:02;;;;;;;22.58;9.63;;;-3.10;99.90;;;;;;5051460;28;20365;-80
2023/01/16 06:56:29;;;;;;;22.20;7.45;;;-3.10;99.90;;;;;;5051625;28;20019;-81
2023/01/16 06:58:55;;;;;;;25.60;11.23;;;-3.00;99.90;;;;;;5032478;28;20040;-79
2023/01/16 07:01:21;;;;;;;24.35;7.72;;;-3.00;99.90;;;;;;5051853;28;20040;-79
2023/01/16 07:03:46;;;;;;;28.83;9.57;;;-3.00;99.90;;;;;;5051636;28;20112;-80
2023/01/16 07:06:12;;;;;;;16.73;8.27;;;-3.10;99.90;;;;;;5051329;28;20099;-80
2023/01/16 07:08:38;;;;;;;32.40;11.95;;;-3.10;99.90;;;;;;5051294;28;20017;-80
2023/01/16 07:11:04;;;;;;;16.98;6.60;;;-3.10;99.80;;;;;;5051312;28;20095;-79
2023/01/16 07:13:30;;;;;;;22.90;9.07;;;-3.10;99.90;;;;;;5050034;28;20150;-80
2023/01/16 07:24:29;;;;;;;7.57;4.95;;;-3.20;99.50;;;;;;5050884;28;20078;-79
2023/01/16 07:26:58;;;;;;;11.80;5.95;;;-3.20;99.80;;;;;;5050903;28;20551;-78
2023/01/16 07:29:28;;;;;;;16.52;8.07;;;-3.20;99.60;;;;;;5044555;28;20017;-79
2023/01/16 07:31:54;;;;;;;13.75;7.43;;;-3.20;99.80;;;;;;5055418;28;20054;-78
2023/01/16 07:34:20;;;;;;;27.10;10.10;;;-3.20;99.80;;;;;;5054829;28;20036;-79
2023/01/16 07:36:46;;;;;;;19.25;7.80;;;-3.20;99.60;;;;;;5055852;28;20029;-78
2023/01/16 07:39:12;;;;;;;11.27;5.82;;;-3.10;99.90;;;;;;5055782;28;20498;-80
2023/01/16 07:41:38;;;;;;;18.15;7.05;;;-3.10;99.80;;;;;;5054522;28;20036;-78
2023/01/16 07:44:05;;;;;;;20.33;7.85;;;-3.20;99.40;;;;;;5054368;28;20025;-79
2023/01/16 07:46:32;;;;;;;18.10;8.23;;;-3.10;99.80;;;;;;5044625;28;20057;-78
2023/01/16 07:48:57;;;;;;;10.27;6.38;;;-3.20;99.60;;;;;;5043137;28;20368;-80
2023/01/16 07:51:24;;;;;;;17.08;7.43;;;-3.20;99.70;;;;;;5049257;28;20064;-80
2023/01/16 07:53:50;;;;;;;14.47;7.60;;;-3.20;99.60;;;;;;5054200;28;20027;-79
2023/01/16 07:56:16;;;;;;;10.70;6.80;;;-3.20;99.60;;;;;;5036501;28;20028;-79
2023/01/16 07:58:42;;;;;;;6.78;4.65;;;-3.20;99.60;;;;;;5053964;28;20383;-77
2023/01/16 08:01:09;;;;;;;6.78;4.72;;;-3.30;99.80;;;;;;5054206;28;20033;-79
2023/01/16 08:03:36;;;;;;;12.65;8.43;;;-3.30;99.80;;;;;;5051273;28;20479;-78
2023/01/16 08:06:03;;;;;;;16.93;7.03;;;-3.30;99.70;;;;;;5054354;28;20104;-80
2023/01/16 08:08:29;;;;;;;19.27;8.18;;;-3.30;99.80;;;;;;5054083;28;20025;-79
2023/01/16 08:11:34;;;;;;;22.02;9.32;;;-3.30;99.70;;;;;;5032476;28;20025;-79
2023/01/16 08:13:45;;;;;;;24.88;10.38;;;-3.30;99.80;;;;;;5038277;28;20025;-79
2023/01/16 08:16:11;;;;;;;14.57;5.72;;;-3.20;99.90;;;;;;5053824;28;20078;-78
2023/01/16 08:18:37;;;;;;;16.83;6.82;;;-3.20;99.40;;;;;;5053861;28;20457;-79
2023/01/16 08:21:03;;;;;;;13.43;7.47;;;-3.30;99.40;;;;;;5053766;28;20152;-79
2023/01/16 08:23:29;;;;;;;20.85;7.50;;;-3.30;99.60;;;;;;5053769;28;20021;-79
2023/01/16 08:25:54;;;;;;;10.73;5.95;;;-3.30;99.70;;;;;;5035748;28;20101;-79
2023/01/16 08:28:21;;;;;;;9.02;5.18;;;-3.30;99.60;;;;;;5053669;28;20031;-79
2023/01/16 08:30:47;;;;;;;16.27;8.70;;;-3.30;99.60;;;;;;5035849;28;20395;-79
2023/01/16 08:33:13;;;;;;;15.57;6.55;;;-3.30;99.90;;;;;;5053123;28;20029;-79
2023/01/16 08:35:39;;;;;;;14.63;7.72;;;-3.30;99.80;;;;;;5053746;28;20024;-81
2023/01/16 08:38:04;;;;;;;9.32;4.78;;;-3.20;99.90;;;;;;5053625;28;20392;-78
2023/01/16 08:40:30;;;;;;;9.73;6.47;;;-3.20;99.90;;;;;;5048413;28;20037;-78
2023/01/16 08:51:22;;;;;;;12.77;6.32;;;-3.30;99.90;;;;;;5046595;28;20031;-82
2023/01/16 08:53:49;;;;;;;19.50;8.52;;;-3.30;99.90;;;;;;5043286;28;20121;-78
2023/01/16 08:56:15;;;;;;;9.20;4.50;;;-3.30;99.90;;;;;;5052956;28;20726;-79
2023/01/16 08:58:41;;;;;;;16.90;6.47;;;-3.30;99.90;;;;;;5035448;28;20049;-78
2023/01/16 09:01:07;;;;;;;19.50;7.93;;;-3.30;99.90;;;;;;5053029;28;20051;-79
2023/01/16 09:03:34;;;;;;;13.48;7.18;;;-3.30;99.90;;;;;;5052999;28;20021;-78
2023/01/16 09:06:00;;;;;;;22.67;8.80;;;-3.40;99.90;;;;;;5053718;28;20029;-79
2023/01/16 09:08:26;;;;;;;19.02;7.30;;;-3.40;99.90;;;;;;5053004;28;20357;-78
2023/01/16 09:13:56;;;;;;;15.65;7.28;;;-3.40;99.90;;;;;;4990960;28;20029;-79
2023/01/16 09:16:24;;;;;;;18.40;9.27;;;-3.30;99.90;;;;;;5038581;28;20513;-78
2023/01/16 09:18:51;;;;;;;24.60;7.95;;;-3.30;99.90;;;;;;5052380;28;20383;-79
2023/01/16 09:21:22;;;;;;;11.07;6.13;;;-3.20;99.90;;;;;;5052845;28;20025;-81
2023/01/16 09:23:48;;;;;;;22.70;8.88;;;-3.30;99.90;;;;;;5052957;28;20126;-79
2023/01/16 09:26:14;;;;;;;14.73;8.27;;;-3.30;99.90;;;;;;5052645;28;20484;-80
2023/01/16 09:28:40;;;;;;;14.30;8.27;;;-3.20;99.90;;;;;;5052503;28;20108;-79
2023/01/16 09:31:06;;;;;;;12.57;8.15;;;-3.20;99.90;;;;;;5052606;28;20111;-78
2023/01/16 09:33:37;;;;;;;21.30;9.02;;;-3.20;99.90;;;;;;5052612;28;20395;-78
2023/01/16 09:36:04;;;;;;;15.57;6.68;;;-3.30;99.90;;;;;;5052238;28;20399;-77
2023/01/16 09:38:30;;;;;;;16.97;8.33;;;-3.30;99.90;;;;;;5051923;28;20029;-77
2023/01/16 09:40:58;;;;;;;11.98;7.63;;;-3.20;99.90;;;;;;5034100;28;20124;-77
2023/01/16 09:43:35;;;;;;;18.77;10.00;;;-3.20;99.90;;;;;;5052392;28;20021;-81
2023/01/16 09:46:04;;;;;;;;;;;-3.20;99.90;;;;;;5033696;28;20426;-79
2023/01/16 09:48:36;;;;;;;17.85;8.70;;;-3.20;99.90;;;;;;5052021;28;19974;-79
2023/01/16 09:51:07;;;;;;;24.83;9.07;;;-3.20;99.90;;;;;;5051315;28;20029;-79
2023/01/16 09:59:48;;;;;;;10.68;7.43;;;-3.00;99.90;;;;;;5052019;28;20056;-79
2023/01/16 10:02:32;;;;;;;15.23;7.50;;;-3.00;99.90;;;;;;5038652;28;20093;-80
2023/01/16 10:05:00;;;;;;;9.45;4.55;;;-2.90;99.90;;;;;;5032093;28;20119;-79
2023/01/16 10:07:37;;;;;;;17.40;6.07;;;-2.90;99.90;;;;;;5034446;28;20021;-80
2023/01/16 10:10:34;;;;;;;14.95;7.95;;;-2.90;99.90;;;;;;5051678;28;20061;-80
2023/01/16 10:13:18;;;;;;;14.30;9.20;;;-2.90;99.90;;;;;;5052173;28;20033;-79
2023/01/16 10:16:01;;;;;;;22.92;8.93;;;-2.90;99.90;;;;;;5013990;28;20036;-78
2023/01/16 10:19:02;;;;;;;13.32;7.63;;;-2.80;99.90;;;;;;5030711;28;20025;-78
2023/01/16 10:22:04;;;;;;;32.38;11.43;;;-2.80;99.90;;;;;;5045793;28;20075;-78
2023/01/16 10:24:42;;;;;;;10.95;6.20;;;-2.70;99.90;;;;;;5042498;28;20067;-78
2023/01/16 10:27:30;;;;;;;20.33;8.65;;;-2.70;99.90;;;;;;5033772;28;20467;-79
2023/01/16 10:30:04;;;;;;;17.98;7.38;;;-2.70;99.90;;;;;;5051621;28;20853;-79
2023/01/16 10:32:36;;;;;;;14.85;8.55;;;-2.60;99.90;;;;;;5033624;28;20478;-78
2023/01/16 10:35:31;;;;;;;14.20;7.75;;;-2.60;99.90;;;;;;5051099;28;20024;-77
2023/01/16 10:38:12;;;;;;;16.20;8.55;;;-2.60;99.90;;;;;;5033455;28;20032;-77
2023/01/16 10:40:41;;;;;;;23.33;8.63;;;-2.60;99.90;;;;;;5051580;28;20116;-77
2023/01/16 10:51:45;;;;;;;15.85;8.77;;;-2.60;99.90;;;;;;5054579;28;20077;-82
2023/01/16 10:54:11;;;;;;;18.48;7.70;;;-2.60;99.90;;;;;;5034530;28;20116;-77
2023/01/16 10:56:39;;;;;;;13.65;7.82;;;-2.50;99.90;;;;;;5054675;28;20064;-80
2023/01/16 10:59:05;;;;;;;12.13;6.60;;;-2.50;99.90;;;;;;5055075;28;20450;-78
2023/01/16 11:01:32;;;;;;;16.48;8.40;;;-2.40;99.90;;;;;;5055831;28;20500;-77
2023/01/16 11:04:01;;;;;;;9.73;6.60;;;-2.40;99.90;;;;;;5055441;28;20096;-76
2023/01/16 11:06:29;;;;;;;10.82;7.05;;;-2.20;99.90;;;;;;5060583;28;20055;-79
2023/01/16 11:09:02;;;;;;;21.88;8.43;;;-2.20;99.90;;;;;;5056212;28;20025;-78
2023/01/16 11:20:06;;;;;;;14.27;7.22;;;-2.20;99.90;;;;;;5055434;28;20079;-80
2023/01/16 11:22:38;;;;;;;12.60;7.22;;;-2.20;99.90;;;;;;5055497;28;20040;-80
2023/01/16 11:25:05;;;;;;;10.27;6.85;;;-2.20;99.90;;;;;;5055314;28;20025;-80
2023/01/16 11:27:37;;;;;;;10.23;6.55;;;-2.10;99.90;;;;;;5055129;28;20021;-80
2023/01/16 11:30:09;;;;;;;17.48;9.35;;;-2.20;99.90;;;;;;5053783;28;20017;-80
2023/01/16 11:32:47;;;;;;;12.82;7.22;;;-2.30;99.90;;;;;;5055033;28;20112;-80
2023/01/16 11:35:15;;;;;;;10.80;5.45;;;-2.30;99.90;;;;;;5039021;28;20017;-76
2023/01/16 11:37:44;;;;;;;13.50;5.65;;;-2.30;99.90;;;;;;5037067;28;20115;-79
2023/01/16 11:40:20;;;;;;;22.13;8.77;;;-2.30;99.90;;;;;;5054560;28;20042;-80
2023/01/16 11:46:02;;;;;;;15.82;6.43;;;-2.30;99.90;;;;;;5054371;28;20035;-80
2023/01/16 11:48:39;;;;;;;12.25;6.85;;;-2.40;99.90;;;;;;5054424;28;20479;-77
2023/01/16 11:51:12;;;;;;;14.93;9.68;;;-2.40;99.90;;;;;;5054787;28;20484;-81
2023/01/16 11:53:37;;;;;;;15.98;7.00;;;-2.40;99.90;;;;;;5054122;28;20075;-79
2023/01/16 11:56:24;;;;;;;14.30;8.43;;;-2.40;99.90;;;;;;5054506;28;20025;-78
2023/01/16 11:58:53;;;;;;;14.43;8.50;;;-2.50;99.90;;;;;;5052704;28;20073;-79
2023/01/16 12:04:23;;;;;;;16.65;6.70;;;-2.30;99.90;;;;;;5044693;28;20078;-79
2023/01/16 12:07:17;;;;;;;15.18;7.95;;;-2.40;99.60;;;;;;5036483;28;20065;-78
2023/01/16 12:10:09;;;;;;;16.02;7.65;;;-2.40;99.50;;;;;;5046296;28;20369;-78
2023/01/16 12:15:50;;;;;;;19.98;7.72;;;-2.50;99.40;;;;;;4999667;28;20077;-79
2023/01/16 12:18:15;;;;;;;17.80;7.93;;;-2.50;99.40;;;;;;5054255;28;20029;-79
2023/01/16 12:21:06;;;;;;;14.98;8.38;;;-2.50;99.20;;;;;;5053715;28;20174;-78
2023/01/16 12:23:43;;;;;;;10.18;4.88;;;-2.50;99.40;;;;;;5053990;28;20414;-78
2023/01/16 12:26:29;;;;;;;16.90;7.40;;;-2.60;99.30;;;;;;5053009;28;20028;-76
2023/01/16 12:29:23;;;;;;;19.33;9.55;;;-2.60;99.60;;;;;;5053452;28;20063;-75
2023/01/16 12:31:55;;;;;;;16.42;7.93;;;-2.60;99.70;;;;;;5053426;28;20029;-76
2023/01/16 12:34:56;;;;;;;14.85;7.85;;;-2.60;99.60;;;;;;5053245;28;20035;-75
2023/01/16 12:37:59;;;;;;;9.00;5.88;;;-2.60;99.80;;;;;;5053546;28;20028;-74
2023/01/16 12:40:28;;;;;;;20.30;8.00;;;-2.60;99.80;;;;;;5053323;28;20017;-75
2023/01/16 12:43:19;;;;;;;13.48;8.43;;;-2.70;99.90;;;;;;5053214;28;20029;-75
2023/01/16 12:46:10;;;;;;;14.25;6.43;;;-2.60;99.90;;;;;;5053405;28;20060;-75
2023/01/16 12:48:57;;;;;;;13.35;7.43;;;-2.60;99.90;;;;;;5053071;28;20032;-77
2023/01/16 12:51:29;;;;;;;14.93;7.15;;;-2.70;99.90;;;;;;5053083;28;20067;-76
2023/01/16 12:54:19;;;;;;;14.60;7.20;;;-2.70;99.90;;;;;;5024066;28;20043;-76
2023/01/16 12:57:03;;;;;;;22.00;8.27;;;-2.70;99.90;;;;;;5034069;28;20017;-75
2023/01/16 12:59:43;;;;;;;20.23;8.57;;;-2.70;99.90;;;;;;5033454;28;20526;-76
2023/01/16 13:02:12;;;;;;;12.73;6.40;;;-2.70;99.90;;;;;;5034532;28;20048;-76
2023/01/16 13:04:42;;;;;;;9.75;6.45;;;-2.60;99.90;;;;;;5053009;28;20357;-76
2023/01/16 13:07:16;;;;;;;14.07;6.88;;;-2.60;99.90;;;;;;5052536;28;20025;-74
2023/01/16 13:13:20;;;;;;;10.52;7.32;;;-2.70;99.90;;;;;;5035351;28;20029;-77
2023/01/16 13:15:33;;;;;;;15.35;7.75;;;-2.80;99.90;;;;;;5052503;28;20103;-77
2023/01/16 13:18:17;;;;;;;11.55;6.80;;;-2.80;99.90;;;;;;5041992;28;20020;-77
2023/01/16 13:20:49;;;;;;;14.93;7.75;;;-2.80;99.90;;;;;;5034666;28;20029;-76
2023/01/16 13:23:20;;;;;;;20.73;10.50;;;-2.80;99.90;;;;;;5034620;28;20441;-77
2023/01/16 13:25:55;;;;;;;17.05;8.45;;;-2.80;99.90;;;;;;5051432;28;20032;-75
2023/01/16 13:28:48;;;;;;;16.92;8.07;;;-2.80;99.90;;;;;;5053281;28;20083;-77
2023/01/16 13:31:30;;;;;;;15.15;8.48;;;-2.70;99.90;;;;;;5052166;28;20104;-77
2023/01/16 13:34:17;;;;;;;16.63;8.95;;;-2.70;99.90;;;;;;5034492;28;20051;-78
2023/01/16 13:37:01;;;;;;;18.95;9.20;;;-2.70;99.90;;;;;;5017330;28;20124;-78
2023/01/16 13:39:55;;;;;;;16.45;8.18;;;-2.70;99.90;;;;;;5046621;28;20407;-75
2023/01/16 13:42:22;;;;;;;21.05;8.10;;;-2.70;99.90;;;;;;5049741;28;20053;-77
2023/01/16 13:47:40;;;;;;;24.58;11.40;;;-2.70;99.90;;;;;;5051628;28;20040;-76
2023/01/16 13:50:14;;;;;;;16.27;7.20;;;-2.70;99.90;;;;;;5051720;28;20064;-81
2023/01/16 13:52:42;;;;;;;15.45;7.93;;;-2.70;99.90;;;;;;5034183;28;20346;-78
2023/01/16 13:55:32;;;;;;;17.00;9.18;;;-2.80;99.90;;;;;;5051808;28;20708;-79
2023/01/16 13:58:13;;;;;;;15.25;9.43;;;-2.80;99.90;;;;;;5051668;28;20151;-78